createdAt,value
2023-02-11T00:01:13.710Z,99257.47
2023-02-11T00:03:41.459Z,99262.19
2023-02-11T00:06:11.976Z,99260.97
2023-02-11T00:08:39.729Z,99259.41
2023-02-11T00:11:07.810Z,99253.75
2023-02-11T00:13:35.472Z,99261.06
2023-02-11T00:16:09.917Z,99258.06
2023-02-11T00:18:37.934Z,99258.03
2023-02-11T00:21:10.189Z,99257.66
2023-02-11T00:23:37.947Z,99253.09
2023-02-11T00:26:12.511Z,99256.28
2023-02-11T00:28:41.375Z,99257.78
2023-02-11T00:31:12.291Z,99247.81
2023-02-11T00:33:40.433Z,99240.28
2023-02-11T00:36:11.284Z,99240.16
2023-02-11T00:38:39.120Z,99237.50
2023-02-11T00:41:08.025Z,99237.94
2023-02-11T00:43:36.210Z,99235.31
2023-02-11T00:46:04.102Z,99232.91
2023-02-11T00:48:32.473Z,99229.78
2023-02-11T00:51:02.202Z,99218.41
2023-02-11T00:53:30.437Z,99230.28
2023-02-11T00:55:58.238Z,99227.34
2023-02-11T00:58:27.345Z,99229.81
2023-02-11T01:00:55.956Z,99235.50
2023-02-11T01:03:23.910Z,99226.47
2023-02-11T01:05:52.027Z,99230.91
2023-02-11T01:08:20.012Z,99227.31
2023-02-11T01:11:15.077Z,99234.66
2023-02-11T01:13:46.214Z,99231.28
2023-02-11T01:16:14.106Z,99228.94
2023-02-11T01:18:44.292Z,99238.53
2023-02-11T01:21:12.167Z,99229.50
2023-02-11T01:23:39.873Z,99225.41
2023-02-11T01:26:07.667Z,99221.22
2023-02-11T01:28:35.451Z,99220.56
2023-02-11T01:31:03.450Z,99213.31
2023-02-11T01:33:33.800Z,99215.53
2023-02-11T01:36:03.071Z,99220.31
2023-02-11T01:38:31.067Z,99220.38
2023-02-11T01:41:00.817Z,99210.25
2023-02-11T01:43:34.229Z,99221.13
2023-02-11T01:46:05.101Z,99215.13
2023-02-11T01:48:35.766Z,99209.22
2023-02-11T01:51:27.700Z,99206.59
2023-02-11T01:54:15.103Z,99207.16
2023-02-11T01:57:04.053Z,99214.81
2023-02-11T01:59:46.413Z,99222.38
2023-02-11T02:02:15.747Z,99222.59
2023-02-11T02:05:15.698Z,99219.41
2023-02-11T02:07:49.738Z,99221.09
2023-02-11T02:10:19.242Z,99222.19
2023-02-11T02:12:47.216Z,99223.00
2023-02-11T02:15:33.533Z,99229.72
2023-02-11T02:18:41.053Z,99221.88
2023-02-11T02:21:34.564Z,99213.91
2023-02-11T02:24:23.030Z,99219.50
2023-02-11T02:27:20.500Z,99218.31
2023-02-11T02:29:54.255Z,99219.81
2023-02-11T02:32:46.346Z,99212.00
2023-02-11T02:35:26.290Z,99212.00
2023-02-11T02:38:08.647Z,99208.50
2023-02-11T02:40:46.667Z,99204.69
2023-02-11T02:43:14.395Z,99211.19
2023-02-11T02:45:42.113Z,99214.34
2023-02-11T02:48:28.599Z,99212.22
2023-02-11T02:51:13.653Z,99214.09
2023-02-11T02:54:18.984Z,99213.72
2023-02-11T02:57:05.058Z,99210.81
2023-02-11T02:59:46.121Z,99208.75
2023-02-11T03:02:19.747Z,99191.13
2023-02-11T03:04:53.568Z,99198.47
2023-02-11T03:07:29.500Z,99194.19
2023-02-11T03:10:11.199Z,99199.53
2023-02-11T03:12:38.999Z,99201.19
2023-02-11T03:15:07.146Z,99196.63
2023-02-11T03:17:35.312Z,99192.47
2023-02-11T03:20:04.433Z,99193.28
2023-02-11T03:23:15.718Z,99188.63
2023-02-11T03:25:51.073Z,99196.00
2023-02-11T03:28:32.529Z,99196.00
2023-02-11T03:31:16.400Z,99193.44
2023-02-11T03:34:06.108Z,99190.56
2023-02-11T03:36:39.058Z,99184.94
2023-02-11T03:39:06.788Z,99190.00
2023-02-11T03:41:34.478Z,99194.22
2023-02-11T03:44:02.188Z,99204.66
2023-02-11T03:46:35.130Z,99201.97
2023-02-11T03:49:04.628Z,99195.06
2023-02-11T03:51:32.404Z,99190.50
2023-02-11T03:54:01.807Z,99206.06
2023-02-11T03:56:31.135Z,99203.78
2023-02-11T03:58:58.894Z,99201.72
2023-02-11T04:01:26.699Z,99194.31
2023-02-11T04:03:54.446Z,99192.88
2023-02-11T04:06:22.215Z,99200.13
2023-02-11T04:08:49.968Z,99197.09
2023-02-11T04:11:17.752Z,99199.63
2023-02-11T04:13:45.447Z,99190.88
2023-02-11T04:16:13.237Z,99193.25
2023-02-11T04:18:40.952Z,99194.63
2023-02-11T04:21:09.346Z,99191.69
2023-02-11T04:23:37.117Z,99183.25
2023-02-11T04:26:05.028Z,99182.94
2023-02-11T04:28:32.779Z,99176.00
2023-02-11T04:31:00.616Z,99182.41
2023-02-11T04:33:28.345Z,99171.88
2023-02-11T04:35:56.126Z,99169.16
2023-02-11T04:38:26.540Z,99165.22
2023-02-11T04:40:54.315Z,99170.06
2023-02-11T04:43:22.009Z,99159.53
2023-02-11T04:45:50.148Z,99157.31
2023-02-11T04:48:18.025Z,99150.28
2023-02-11T04:50:45.778Z,99155.69
2023-02-11T04:53:13.478Z,99155.56
2023-02-11T04:55:41.249Z,99158.88
2023-02-11T04:58:08.947Z,99162.66
2023-02-11T05:00:36.686Z,99159.00
2023-02-11T05:03:04.365Z,99169.47
2023-02-11T05:05:32.118Z,99163.41
2023-02-11T05:07:59.817Z,99165.81
2023-02-11T05:10:27.885Z,99163.66
2023-02-11T05:12:56.166Z,99158.41
2023-02-11T05:15:25.116Z,99158.56
2023-02-11T05:17:52.904Z,99147.81
2023-02-11T05:20:20.731Z,99146.56
2023-02-11T05:22:48.507Z,99141.28
2023-02-11T05:25:16.202Z,99145.38
2023-02-11T05:27:43.923Z,99143.03
2023-02-11T05:30:11.920Z,99136.06
2023-02-11T05:32:40.133Z,99143.91
2023-02-11T05:35:09.099Z,99139.31
2023-02-11T05:37:36.915Z,99143.13
2023-02-11T05:40:05.096Z,99136.22
2023-02-11T05:42:32.896Z,99139.06
2023-02-11T05:45:00.673Z,99147.06
2023-02-11T05:47:28.378Z,99150.25
2023-02-11T05:49:56.053Z,99145.19
2023-02-11T05:52:23.952Z,99154.59
2023-02-11T07:23:58.390Z,99119.06
2023-02-11T07:26:26.161Z,99111.81
2023-02-11T07:28:53.904Z,99116.72
2023-02-11T07:31:23.885Z,99109.28
2023-02-11T07:33:52.812Z,99103.94
2023-02-11T07:36:20.569Z,99116.34
2023-02-11T07:38:48.449Z,99103.16
2023-02-11T07:41:18.216Z,99099.44
2023-02-11T07:43:46.049Z,99102.13
2023-02-11T07:46:18.902Z,99105.91
2023-02-11T07:48:46.878Z,99100.88
2023-02-11T07:51:18.243Z,99103.22
2023-02-11T07:53:46.062Z,99103.59
2023-02-11T07:56:14.483Z,99104.56
2023-02-11T07:58:43.152Z,99100.25
2023-02-11T08:01:13.138Z,99095.38
2023-02-11T08:03:42.759Z,99092.94
2023-02-11T08:06:12.615Z,99090.81
2023-02-11T08:08:40.343Z,99087.66
2023-02-11T08:11:08.944Z,99088.06
2023-02-11T08:13:36.712Z,99086.91
2023-02-11T08:16:05.055Z,99089.72
2023-02-11T08:18:33.267Z,99082.78
2023-02-11T08:21:07.964Z,99081.97
2023-02-11T08:23:39.367Z,99082.13
2023-02-11T08:26:09.378Z,99075.84
2023-02-11T08:28:37.903Z,99079.03
2023-02-11T08:31:10.315Z,99079.50
2023-02-11T08:33:40.295Z,99076.44
2023-02-11T08:36:12.479Z,99074.34
2023-02-11T08:38:40.206Z,99081.09
2023-02-11T08:41:08.005Z,99081.88
2023-02-11T08:43:36.307Z,99086.88
2023-02-11T08:46:04.174Z,99086.03
2023-02-11T08:48:31.992Z,99085.97
2023-02-11T08:50:59.853Z,99083.53
2023-02-11T08:53:27.556Z,99079.53
2023-02-11T08:55:55.420Z,99082.38
2023-02-11T08:58:23.150Z,99069.47
2023-02-11T09:00:51.321Z,99074.97
2023-02-11T09:03:19.136Z,99065.41
2023-02-11T09:05:48.177Z,99068.84
2023-02-11T09:08:16.511Z,99069.19
2023-02-11T09:10:44.300Z,99072.13
2023-02-11T09:13:12.219Z,99068.09
2023-02-11T09:15:39.974Z,99066.38
2023-02-11T09:18:07.672Z,99060.84
2023-02-11T09:20:35.369Z,99067.91
2023-02-11T09:23:03.137Z,99061.06
2023-02-11T09:25:31.032Z,99055.84
2023-02-11T09:27:58.752Z,99059.53
2023-02-11T09:30:26.593Z,99056.09
2023-02-11T09:32:54.399Z,99051.63
2023-02-11T09:35:22.067Z,99041.72
2023-02-11T09:37:49.835Z,99036.88
2023-02-11T09:40:17.636Z,99044.25
2023-02-11T09:42:46.436Z,99047.53
2023-02-11T09:45:28.151Z,99032.41
2023-02-11T09:48:00.993Z,99031.78
2023-02-11T09:50:55.833Z,99022.34
2023-02-11T09:53:28.394Z,99019.63
2023-02-11T09:55:59.471Z,99009.94
2023-02-11T09:58:33.952Z,99000.25
2023-02-11T10:01:08.960Z,98989.41
2023-02-11T10:03:58.621Z,98997.25
2023-02-11T10:06:44.923Z,98992.16
2023-02-11T10:09:30.627Z,98986.53
2023-02-11T10:12:55.432Z,98979.94
2023-02-11T10:15:45.496Z,98972.47
2023-02-11T10:18:25.167Z,98958.25
2023-02-11T10:21:16.849Z,98947.19
2023-02-11T10:23:46.914Z,98949.03
2023-02-11T10:26:18.493Z,98939.59
2023-02-11T10:28:48.140Z,98937.28
2023-02-11T10:31:22.981Z,98933.81
2023-02-11T10:34:00.433Z,98925.91
2023-02-11T10:36:30.049Z,98918.53
2023-02-11T10:39:02.235Z,98904.44
2023-02-11T10:41:32.827Z,98905.75
2023-02-11T10:44:00.943Z,98897.25
2023-02-11T10:46:33.836Z,98880.94
2023-02-11T10:49:03.356Z,98886.13
2023-02-11T10:51:34.327Z,98879.81
2023-02-11T10:54:05.383Z,98874.78
2023-02-11T10:56:36.184Z,98875.41
2023-02-11T10:59:22.225Z,98870.22
2023-02-11T11:01:54.113Z,98854.63
2023-02-11T11:04:32.144Z,98854.66
2023-02-11T11:07:10.212Z,98856.66
2023-02-11T11:09:55.067Z,98858.25
2023-02-11T11:12:36.285Z,98855.97
2023-02-11T11:15:10.066Z,98848.28
2023-02-11T11:17:38.229Z,98843.84
2023-02-11T11:20:28.343Z,98839.31
2023-02-11T11:23:31.832Z,98841.13
2023-02-11T11:26:12.525Z,98844.28
2023-02-11T11:28:41.390Z,98830.72
2023-02-11T11:31:14.439Z,98830.88
2023-02-11T11:33:43.696Z,98826.00
2023-02-11T11:36:17.487Z,98824.84
2023-02-11T11:38:58.910Z,98813.59
2023-02-11T11:41:31.194Z,98812.69
2023-02-11T11:44:30.464Z,98813.06
2023-02-11T11:47:13.521Z,98802.47
2023-02-11T11:49:56.632Z,98798.78
2023-02-11T11:52:42.927Z,98796.44
2023-02-11T11:55:23.197Z,98785.13
2023-02-11T11:57:50.971Z,98784.81
2023-02-11T12:00:28.594Z,98794.41
2023-02-11T12:03:18.809Z,98785.34
2023-02-11T12:05:59.623Z,98775.31
2023-02-11T12:08:45.973Z,98774.56
2023-02-11T12:11:45.643Z,98770.13
2023-02-11T12:14:20.875Z,98756.38
2023-02-11T12:17:07.541Z,98745.59
2023-02-11T12:20:14.302Z,98740.53
2023-02-11T12:22:48.438Z,98737.97
2023-02-11T12:25:30.904Z,98730.13
2023-02-11T12:28:27.231Z,98723.28
2023-02-11T12:31:13.977Z,98719.38
2023-02-11T12:33:56.991Z,98722.94
2023-02-11T12:36:32.035Z,98713.97
2023-02-11T12:39:24.039Z,98715.19
2023-02-11T12:42:42.090Z,98714.75
2023-02-11T12:45:12.707Z,98701.69
2023-02-11T12:59:33.512Z,98694.53
2023-02-11T13:02:01.798Z,98679.69
2023-02-11T13:04:38.965Z,98689.84
2023-02-11T13:07:14.132Z,98684.72
2023-02-11T13:09:49.158Z,98677.50
2023-02-11T13:12:35.514Z,98671.38
2023-02-11T13:15:05.978Z,98663.69
2023-02-11T13:17:54.432Z,98664.84
2023-02-11T13:20:37.241Z,98656.78
2023-02-11T13:23:31.415Z,98663.00
2023-02-11T13:26:20.687Z,98662.84
2023-02-11T13:29:14.883Z,98653.25
2023-02-11T13:31:42.702Z,98646.69
2023-02-11T13:34:27.461Z,98653.50
2023-02-11T13:36:56.095Z,98650.94
2023-02-11T13:39:23.858Z,98648.44
2023-02-11T13:41:52.893Z,98644.59
2023-02-11T13:44:23.702Z,98642.34
2023-02-11T13:46:59.740Z,98635.28
2023-02-11T13:49:40.679Z,98638.50
2023-02-11T13:52:28.858Z,98632.41
2023-02-11T13:55:15.076Z,98623.41
2023-02-11T13:57:43.120Z,98619.63
2023-02-11T14:00:29.604Z,98614.31
2023-02-11T14:03:31.074Z,98612.56
2023-02-11T14:06:26.678Z,98616.09
2023-02-11T14:09:09.750Z,98607.94
2023-02-11T14:11:42.322Z,98609.66
2023-02-11T14:14:17.573Z,98609.03
2023-02-11T14:17:04.653Z,98607.78
2023-02-11T14:19:36.162Z,98601.97
2023-02-11T14:22:13.604Z,98598.16
2023-02-11T14:24:46.945Z,98612.56
2023-02-11T14:27:21.414Z,98605.19
2023-02-11T14:30:30.516Z,98606.16
2023-02-11T14:33:26.930Z,98613.50
2023-02-11T14:36:20.102Z,98608.22
2023-02-11T14:39:33.018Z,98605.47
2023-02-11T14:42:00.804Z,98607.06
2023-02-11T14:44:30.130Z,98600.38
2023-02-11T14:46:58.131Z,98601.34
2023-02-11T14:49:39.445Z,98588.50
2023-02-11T14:52:23.340Z,98593.03
2023-02-11T14:54:51.580Z,98583.44
2023-02-11T14:57:20.028Z,98583.91
2023-02-11T15:00:02.882Z,98583.22
2023-02-11T15:02:35.597Z,98574.78
2023-02-11T15:05:26.948Z,98576.22
2023-02-11T15:08:04.340Z,98572.81
2023-02-11T15:10:41.481Z,98579.72
2023-02-11T15:13:09.254Z,98572.66
2023-02-11T15:15:37.777Z,98567.72
2023-02-11T15:18:05.588Z,98567.56
2023-02-11T15:20:34.057Z,98567.19
2023-02-11T15:23:03.448Z,98563.72
2023-02-11T15:25:33.803Z,98560.50
2023-02-11T15:28:02.306Z,98560.72
2023-02-11T15:30:32.081Z,98567.06
2023-02-11T15:33:02.917Z,98555.97
2023-02-11T15:35:38.090Z,98556.63
2023-02-11T15:38:05.862Z,98564.19
2023-02-11T15:40:36.976Z,98569.91
2023-02-11T15:43:06.538Z,98577.28
2023-02-11T15:45:39.467Z,98580.03
2023-02-11T15:48:14.151Z,98571.47
2023-02-11T15:50:42.390Z,98586.97
2023-02-11T15:53:20.272Z,98586.81
2023-02-11T15:55:49.322Z,98586.22
2023-02-11T15:58:17.019Z,98578.94
2023-02-11T16:00:49.809Z,98583.38
2023-02-11T16:03:22.491Z,98580.34
2023-02-11T16:05:50.436Z,98577.56
2023-02-11T16:08:25.149Z,98573.75
2023-02-11T16:11:03.390Z,98578.69
2023-02-11T16:13:34.157Z,98577.91
2023-02-11T16:16:05.100Z,98592.28
2023-02-11T16:18:52.070Z,98593.06
2023-02-11T16:21:39.245Z,98588.25
2023-02-11T16:24:07.530Z,98588.06
2023-02-11T16:26:39.213Z,98584.59
2023-02-11T16:29:10.477Z,98586.81
2023-02-11T16:31:40.341Z,98575.53
2023-02-11T16:34:26.335Z,98584.94
2023-02-11T16:36:54.156Z,98581.53
2023-02-11T16:39:22.534Z,98584.19
2023-02-11T16:41:50.888Z,98586.63
2023-02-11T16:44:18.644Z,98590.28
2023-02-11T16:46:46.520Z,98581.00
2023-02-11T16:49:25.836Z,98580.34
2023-02-11T16:51:56.926Z,98587.06
2023-02-11T16:54:24.657Z,98583.44
2023-02-11T16:56:52.345Z,98583.84
2023-02-11T16:59:20.343Z,98589.91
2023-02-11T17:01:48.139Z,98578.56
2023-02-11T17:04:25.436Z,98578.41
2023-02-11T17:06:53.327Z,98581.44
2023-02-11T17:09:23.190Z,98583.28
2023-02-11T17:11:51.079Z,98584.81
2023-02-11T17:14:19.253Z,98582.06
2023-02-11T17:16:47.565Z,98586.38
2023-02-11T17:19:16.877Z,98565.34
2023-02-11T17:21:45.245Z,98576.13
2023-02-11T17:24:14.290Z,98573.50
2023-02-11T17:26:42.542Z,98577.72
2023-02-11T17:29:12.132Z,98587.25
2023-02-11T17:31:40.312Z,98582.13
2023-02-11T17:34:08.365Z,98594.31
2023-02-11T17:36:36.689Z,98596.19
2023-02-11T17:39:07.684Z,98595.44
2023-02-11T17:41:39.210Z,98589.22
2023-02-11T17:44:07.432Z,98580.63
2023-02-11T17:46:35.388Z,98579.25
2023-02-11T17:49:03.571Z,98580.13
2023-02-11T17:51:33.197Z,98578.56
2023-02-11T17:54:02.540Z,98580.00
2023-02-11T17:56:32.050Z,98588.56
2023-02-11T17:58:59.751Z,98581.97
2023-02-11T18:01:28.075Z,98582.81
2023-02-11T18:03:55.761Z,98587.81
2023-02-11T18:06:23.547Z,98579.59
2023-02-11T18:08:51.372Z,98577.97
2023-02-11T18:11:19.395Z,98572.94
2023-02-11T18:13:54.348Z,98579.03
2023-02-11T18:16:23.338Z,98582.38
2023-02-11T18:18:51.231Z,98576.97
2023-02-11T18:21:20.396Z,98575.50
2023-02-11T18:23:50.355Z,98559.81
2023-02-11T18:26:18.964Z,98557.63
2023-02-11T18:28:46.903Z,98559.13
2023-02-11T18:31:15.776Z,98557.66
2023-02-11T18:33:43.806Z,98545.38
2023-02-11T18:36:13.180Z,98545.75
2023-02-11T18:38:44.264Z,98538.03
2023-02-11T18:41:12.562Z,98532.59
2023-02-11T18:43:40.306Z,98530.84
2023-02-11T18:46:11.847Z,98537.44
2023-02-11T18:48:40.075Z,98535.81
2023-02-11T18:51:13.329Z,98531.47
2023-02-11T18:53:41.111Z,98530.78
2023-02-11T18:56:18.281Z,98535.13
2023-02-11T18:58:46.341Z,98539.84
2023-02-11T19:01:20.635Z,98531.13
2023-02-11T19:03:48.695Z,98528.78
2023-02-11T19:06:17.908Z,98532.56
2023-02-11T19:08:46.040Z,98535.41
2023-02-11T19:11:17.963Z,98544.75
2023-02-11T19:13:48.685Z,98535.03
2023-02-11T19:16:20.680Z,98538.91
2023-02-11T19:18:48.493Z,98537.22
2023-02-11T19:21:16.766Z,98538.56
2023-02-11T19:23:44.459Z,98545.56
2023-02-11T19:26:13.609Z,98537.38
2023-02-11T19:28:42.836Z,98528.50
2023-02-11T19:31:10.703Z,98532.47
2023-02-11T19:33:39.186Z,98522.19
2023-02-11T19:36:08.177Z,98525.34
2023-02-11T19:38:38.009Z,98522.78
2023-02-11T19:41:05.709Z,98520.34
2023-02-11T19:43:33.412Z,98530.00
2023-02-11T19:46:04.521Z,98527.03
2023-02-11T19:48:32.305Z,98521.09
2023-02-11T19:51:13.136Z,98513.78
2023-02-11T19:53:41.784Z,98510.69
2023-02-11T19:56:09.980Z,98507.94
2023-02-11T19:58:38.249Z,98513.25
2023-02-11T20:01:11.245Z,98494.47
2023-02-11T20:03:41.442Z,98494.75
2023-02-11T20:06:15.054Z,98488.97
2023-02-11T20:08:43.878Z,98495.50
2023-02-11T20:11:34.745Z,98488.50
2023-02-11T20:14:03.843Z,98487.19
2023-02-11T20:16:46.932Z,98486.34
2023-02-11T20:19:21.530Z,98481.06
2023-02-11T20:21:51.790Z,98480.81
2023-02-11T20:24:20.863Z,98483.16
2023-02-11T20:26:48.930Z,98483.91
2023-02-11T20:29:17.128Z,98480.72
2023-02-11T20:31:45.716Z,98470.63
2023-02-11T20:34:17.009Z,98473.38
2023-02-11T20:36:52.374Z,98476.25
2023-02-11T20:39:25.174Z,98463.53
2023-02-11T20:41:53.824Z,98461.28
2023-02-11T20:44:22.371Z,98473.31
2023-02-11T20:46:50.783Z,98465.25
2023-02-11T20:49:21.074Z,98460.25
2023-02-11T20:51:49.406Z,98461.69
2023-02-11T20:54:20.992Z,98470.13
2023-02-11T20:56:50.747Z,98453.94
2023-02-11T20:59:18.840Z,98449.47
2023-02-11T21:01:53.388Z,98444.28
2023-02-11T21:04:26.197Z,98439.19
2023-02-11T21:06:56.272Z,98441.13
2023-02-11T21:09:27.529Z,98434.66
2023-02-11T21:11:55.896Z,98426.78
2023-02-11T21:14:23.979Z,98422.72
2023-02-11T21:16:51.937Z,98419.97
2023-02-11T21:19:20.486Z,98424.63
2023-02-11T21:21:49.647Z,98419.50
2023-02-11T21:24:17.480Z,98412.75
2023-02-11T21:26:45.234Z,98412.28
2023-02-11T21:29:15.017Z,98414.47
2023-02-11T21:31:44.654Z,98422.03
2023-02-11T21:34:12.993Z,98416.06
2023-02-11T21:36:41.150Z,98406.84
2023-02-11T21:39:09.047Z,98401.34
2023-02-11T21:41:36.741Z,98416.00
2023-02-11T21:44:04.451Z,98406.50
2023-02-11T21:46:32.194Z,98413.16
2023-02-11T21:49:00.465Z,98409.28
2023-02-11T21:51:28.353Z,98393.84
2023-02-11T21:53:59.132Z,98390.28
2023-02-11T21:56:28.179Z,98392.28
2023-02-11T21:58:56.990Z,98392.41
2023-02-11T22:01:26.616Z,98383.56
2023-02-11T22:03:54.508Z,98394.94
2023-02-11T22:06:26.396Z,98395.41
2023-02-11T22:08:54.869Z,98397.19
2023-02-11T22:11:22.627Z,98404.63
2023-02-11T22:13:55.224Z,98406.63
2023-02-11T22:16:23.407Z,98418.75
2023-02-11T22:18:51.522Z,98429.13
2023-02-11T22:21:21.566Z,98429.63
2023-02-11T22:23:51.435Z,98444.03
2023-02-11T22:26:21.315Z,98434.88
2023-02-11T22:28:52.156Z,98440.94
2023-02-11T22:31:28.762Z,98448.63
2023-02-11T22:33:57.261Z,98446.81
2023-02-11T22:36:27.141Z,98439.78
2023-02-11T22:38:55.298Z,98438.09
2023-02-11T22:41:23.083Z,98432.56
2023-02-11T22:43:52.037Z,98439.94
2023-02-11T22:46:21.992Z,98436.75
2023-02-11T22:48:51.632Z,98449.03
2023-02-11T22:51:22.293Z,98445.41
2023-02-11T22:53:54.248Z,98454.59
2023-02-11T22:56:22.403Z,98446.75
2023-02-11T22:58:50.753Z,98441.00
2023-02-11T23:01:18.708Z,98449.47
2023-02-11T23:03:47.005Z,98454.66
2023-02-11T23:06:14.810Z,98444.53
2023-02-11T23:08:43.768Z,98442.19
2023-02-11T23:11:16.437Z,98425.47
2023-02-11T23:13:44.707Z,98421.22
2023-02-11T23:16:19.060Z,98416.16
2023-02-11T23:18:48.083Z,98398.44
2023-02-11T23:21:26.464Z,98390.38
2023-02-11T23:23:56.457Z,98394.59
2023-02-11T23:26:24.329Z,98382.34
2023-02-11T23:28:52.214Z,98386.72
2023-02-11T23:31:23.439Z,98379.72
2023-02-11T23:33:51.450Z,98381.56
2023-02-11T23:36:20.659Z,98379.56
2023-02-11T23:38:49.412Z,98379.50
2023-02-11T23:41:20.086Z,98378.22
2023-02-11T23:43:53.236Z,98374.81
2023-02-11T23:46:22.272Z,98374.94
2023-02-11T23:48:50.904Z,98366.84
2023-02-11T23:51:19.900Z,98375.59
2023-02-11T23:53:49.382Z,98370.53
2023-02-11T23:56:19.584Z,98375.25
2023-02-11T23:58:49.423Z,98364.63
